createdAt,value
2018-03-16T00:01:29.178Z,18.20
2018-03-16T00:03:57.451Z,20.60
2018-03-16T00:06:27.075Z,19.77
2018-03-16T00:08:55.242Z,20.90
2018-03-16T00:11:24.275Z,18.40
2018-03-16T00:13:52.598Z,17.13
2018-03-16T00:16:20.868Z,19.50
2018-03-16T00:18:49.903Z,20.13
2018-03-16T00:21:18.593Z,19.13
2018-03-16T00:23:47.626Z,19.57
2018-03-16T00:26:15.907Z,20.43
2018-03-16T00:28:44.978Z,20.17
2018-03-16T00:31:13.242Z,19.17
2018-03-16T00:33:41.510Z,18.97
2018-03-16T00:36:10.583Z,23.43
2018-03-16T00:38:39.618Z,19.80
2018-03-16T00:41:07.891Z,19.17
2018-03-16T00:43:36.187Z,20.47
2018-03-16T00:46:05.970Z,20.37
2018-03-16T00:48:34.239Z,22.10
2018-03-16T00:51:02.568Z,21.47
2018-03-16T00:53:30.845Z,21.13
2018-03-16T00:55:59.119Z,21.13
2018-03-16T00:58:28.559Z,21.83
2018-03-16T01:00:57.594Z,20.33
2018-03-16T01:03:26.630Z,21.00
2018-03-16T01:05:54.927Z,21.40
2018-03-16T01:08:23.214Z,21.40
2018-03-16T01:10:51.482Z,19.27
2018-03-16T01:13:19.774Z,19.90
2018-03-16T01:15:48.083Z,21.80
2018-03-16T01:18:16.354Z,23.10
2018-03-16T01:20:47.514Z,20.70
2018-03-16T01:23:15.790Z,19.67
2018-03-16T01:25:44.061Z,23.00
2018-03-16T01:28:12.764Z,21.37
2018-03-16T01:30:42.538Z,21.83
2018-03-16T01:33:10.815Z,22.17
2018-03-16T01:35:39.983Z,21.23
2018-03-16T01:38:08.255Z,19.30
2018-03-16T01:40:37.289Z,22.27
2018-03-16T01:43:05.918Z,19.73
2018-03-16T01:45:34.955Z,18.93
2018-03-16T01:48:03.218Z,21.70
2018-03-16T01:50:31.518Z,20.00
2018-03-16T01:53:11.502Z,22.43
2018-03-16T01:55:39.806Z,20.13
2018-03-16T01:58:08.082Z,21.83
2018-03-16T02:00:37.114Z,20.77
2018-03-16T02:03:05.442Z,18.90
2018-03-16T02:05:33.709Z,19.57
2018-03-16T02:08:02.746Z,20.37
2018-03-16T02:10:31.666Z,21.70
2018-03-16T02:13:00.783Z,20.57
2018-03-16T02:15:30.087Z,21.77
2018-03-16T02:17:59.158Z,18.87
2018-03-16T02:20:28.189Z,18.67
2018-03-16T02:22:59.134Z,20.60
2018-03-16T02:25:27.402Z,19.13
2018-03-16T02:27:56.462Z,19.77
2018-03-16T02:30:24.759Z,19.93
2018-03-16T02:32:53.030Z,20.93
2018-03-16T02:35:22.669Z,22.90
2018-03-16T02:37:51.814Z,21.77
2018-03-16T02:40:20.087Z,21.87
2018-03-16T02:42:49.116Z,25.23
2018-03-16T02:45:17.415Z,24.40
2018-03-16T02:47:45.682Z,20.83
2018-03-16T02:50:13.948Z,23.83
2018-03-16T02:52:42.646Z,24.67
2018-03-16T02:55:11.684Z,22.50
2018-03-16T02:57:39.950Z,22.63
2018-03-16T03:00:08.247Z,22.90
2018-03-16T03:02:37.307Z,23.87
2018-03-16T03:05:06.711Z,24.07
2018-03-16T03:07:35.318Z,24.90
2018-03-16T03:10:03.574Z,25.77
2018-03-16T03:12:32.252Z,29.63
2018-03-16T03:15:00.549Z,26.00
2018-03-16T03:17:28.809Z,25.50
2018-03-16T03:19:57.843Z,26.40
2018-03-16T03:22:26.922Z,26.60
2018-03-16T03:24:55.187Z,27.03
2018-03-16T03:27:23.447Z,29.13
2018-03-16T03:29:52.514Z,28.43
2018-03-16T03:32:21.915Z,30.27
2018-03-16T03:34:50.187Z,29.77
2018-03-16T03:37:18.494Z,34.07
2018-03-16T03:39:46.751Z,26.27
2018-03-16T03:42:15.019Z,32.23
2018-03-16T03:44:44.057Z,31.30
2018-03-16T03:47:12.326Z,30.00
2018-03-16T03:49:42.102Z,30.80
2018-03-16T03:52:10.421Z,31.23
2018-03-16T03:54:38.682Z,29.20
2018-03-16T03:57:07.719Z,31.37
2018-03-16T03:59:36.394Z,32.50
2018-03-16T04:02:05.058Z,28.90
2018-03-16T04:04:33.342Z,30.70
2018-03-16T04:07:01.610Z,30.63
2018-03-16T04:09:31.046Z,33.00
2018-03-16T04:12:00.078Z,34.07
2018-03-16T04:14:28.347Z,35.70
2018-03-16T04:16:58.142Z,38.07
2018-03-16T04:19:26.403Z,34.70
2018-03-16T04:21:55.459Z,35.60
2018-03-16T04:24:23.742Z,33.97
2018-03-16T04:26:52.002Z,36.17
2018-03-16T04:29:21.803Z,37.60
2018-03-16T04:31:50.085Z,33.77
2018-03-16T04:34:18.362Z,35.60
2018-03-16T04:36:46.654Z,36.63
2018-03-16T04:39:14.918Z,36.20
2018-03-16T04:41:43.173Z,34.47
2018-03-16T04:44:12.614Z,35.77
2018-03-16T04:46:41.638Z,36.90
2018-03-16T04:49:09.906Z,38.37
2018-03-16T04:51:39.723Z,40.97
2018-03-16T04:54:07.990Z,43.60
2018-03-16T04:56:36.251Z,35.97
2018-03-16T04:59:04.550Z,38.80
2018-03-16T05:01:33.215Z,42.70
2018-03-16T05:04:01.479Z,39.77
2018-03-16T05:06:30.535Z,37.20
2018-03-16T05:08:58.799Z,39.70
2018-03-16T05:11:27.835Z,41.07
2018-03-16T05:13:56.895Z,37.00
2018-03-16T05:16:25.931Z,36.43
2018-03-16T05:18:54.199Z,37.43
2018-03-16T05:21:23.271Z,35.13
2018-03-16T05:23:52.306Z,39.50
2018-03-16T05:26:20.576Z,35.30
2018-03-16T05:28:48.890Z,39.37
2018-03-16T05:31:17.155Z,40.47
2018-03-16T05:33:46.672Z,42.13
2018-03-16T05:36:14.967Z,34.67
2018-03-16T05:38:43.229Z,38.57
2018-03-16T05:41:11.492Z,39.40
2018-03-16T05:43:39.792Z,41.83
2018-03-16T05:46:08.050Z,36.90
2018-03-16T05:48:37.674Z,37.23
2018-03-16T05:51:05.871Z,36.00
2018-03-16T05:53:34.902Z,36.30
2018-03-16T05:56:03.562Z,39.47
2018-03-16T05:58:31.870Z,35.37
2018-03-16T06:01:00.135Z,37.97
2018-03-16T06:03:28.407Z,39.27
2018-03-16T06:05:58.250Z,37.20
2018-03-16T06:08:26.507Z,36.93
2018-03-16T06:10:54.776Z,41.47
2018-03-16T06:13:23.078Z,35.47
2018-03-16T06:15:51.346Z,35.87
2018-03-16T06:18:19.619Z,36.03
2018-03-16T06:20:47.928Z,43.20
2018-03-16T06:23:16.202Z,39.33
2018-03-16T06:25:45.243Z,39.60
2018-03-16T06:28:13.559Z,39.30
2018-03-16T06:30:41.831Z,40.27
2018-03-16T06:33:10.099Z,40.93
2018-03-16T06:35:38.563Z,39.73
2018-03-16T06:38:06.829Z,39.50
2018-03-16T06:40:35.863Z,47.10
2018-03-16T06:43:04.187Z,44.63
2018-03-16T06:45:32.457Z,41.60
2018-03-16T06:48:00.726Z,43.70
2018-03-16T06:50:30.539Z,42.53
2018-03-16T06:52:58.825Z,44.77
2018-03-16T06:55:27.486Z,49.43
2018-03-16T06:57:56.934Z,51.17
2018-03-16T07:00:25.198Z,46.23
2018-03-16T07:02:54.590Z,40.90
2018-03-16T07:05:22.890Z,47.93
2018-03-16T07:07:51.167Z,48.77
2018-03-16T07:10:19.440Z,43.77
2018-03-16T07:12:48.698Z,48.40
2018-03-16T07:15:29.974Z,53.00
2018-03-16T07:17:59.652Z,51.40
2018-03-16T07:20:28.550Z,47.40
2018-03-16T07:22:56.827Z,49.57
2018-03-16T07:25:25.895Z,45.90
2018-03-16T07:27:54.167Z,43.17
2018-03-16T07:30:22.434Z,50.53
2018-03-16T07:32:52.264Z,46.87
2018-03-16T07:35:20.510Z,48.73
2018-03-16T07:37:48.778Z,45.57
2018-03-16T07:40:17.490Z,49.40
2018-03-16T07:42:46.535Z,41.60
2018-03-16T07:45:14.796Z,47.27
2018-03-16T07:47:43.099Z,43.77
2018-03-16T07:50:11.372Z,44.37
2018-03-16T07:52:42.574Z,48.43
2018-03-16T07:55:11.291Z,46.27
2018-03-16T07:57:39.555Z,46.30
2018-03-16T08:00:07.826Z,41.80
2018-03-16T08:02:36.135Z,47.70
2018-03-16T08:05:04.406Z,45.60
2018-03-16T08:07:33.814Z,50.30
2018-03-16T08:10:02.115Z,47.33
2018-03-16T08:12:30.786Z,47.70
2018-03-16T08:14:59.468Z,43.93
2018-03-16T08:17:28.173Z,46.97
2018-03-16T08:19:57.205Z,47.97
2018-03-16T08:22:26.236Z,44.60
2018-03-16T08:24:54.535Z,49.93
2018-03-16T08:27:22.809Z,50.83
2018-03-16T08:29:51.075Z,45.20
2018-03-16T08:32:19.526Z,47.37
2018-03-16T08:34:48.934Z,44.50
2018-03-16T08:37:17.207Z,42.63
2018-03-16T08:39:46.862Z,43.90
2018-03-16T08:42:15.139Z,42.27
2018-03-16T08:44:43.403Z,45.97
2018-03-16T08:47:12.479Z,46.07
2018-03-16T08:49:41.509Z,43.07
2018-03-16T08:52:09.775Z,42.10
2018-03-16T08:54:38.081Z,45.10
2018-03-16T08:57:06.351Z,41.43
2018-03-16T08:59:36.129Z,46.73
2018-03-16T09:02:04.443Z,44.20
2018-03-16T09:04:33.110Z,44.60
2018-03-16T09:07:01.378Z,45.63
2018-03-16T09:09:31.389Z,45.10
2018-03-16T09:11:59.647Z,44.67
2018-03-16T09:14:28.684Z,45.17
2018-03-16T09:16:56.979Z,43.13
2018-03-16T09:19:25.242Z,46.27
2018-03-16T09:21:53.502Z,41.60
2018-03-16T09:24:21.807Z,40.97
2018-03-16T09:26:51.574Z,40.40
2018-03-16T09:29:19.835Z,40.40
2018-03-16T09:31:48.134Z,42.43
2018-03-16T09:34:16.403Z,41.50
2018-03-16T09:36:45.433Z,37.00
2018-03-16T09:39:14.907Z,38.07
2018-03-16T09:41:43.931Z,37.57
2018-03-16T09:44:12.193Z,39.10
2018-03-16T09:46:40.501Z,42.60
2018-03-16T09:49:08.758Z,35.17
2018-03-16T09:51:37.017Z,36.83
2018-03-16T09:54:05.318Z,35.77
2018-03-16T09:56:33.591Z,34.63
2018-03-16T09:59:02.618Z,34.67
2018-03-16T10:01:31.683Z,38.17
2018-03-16T10:04:00.706Z,34.57
2018-03-16T10:06:28.971Z,32.33
2018-03-16T10:08:57.282Z,32.77
2018-03-16T10:11:25.554Z,31.80
2018-03-16T10:13:54.582Z,32.43
2018-03-16T10:16:23.278Z,31.60
2018-03-16T10:18:52.301Z,33.27
2018-03-16T10:21:21.707Z,33.70
2018-03-16T10:23:50.013Z,32.40
2018-03-16T10:26:18.274Z,33.17
2018-03-16T10:28:46.534Z,31.73
2018-03-16T10:31:15.970Z,31.60
2018-03-16T10:33:45.003Z,32.50
2018-03-16T10:36:13.273Z,30.57
2018-03-16T10:38:41.570Z,30.77
2018-03-16T10:41:10.604Z,32.77
2018-03-16T10:43:39.626Z,33.03
2018-03-16T10:46:08.690Z,31.07
2018-03-16T10:48:36.954Z,31.67
2018-03-16T10:51:05.986Z,31.23
2018-03-16T10:53:35.237Z,34.67
2018-03-16T10:56:03.494Z,34.50
2018-03-16T10:58:32.526Z,30.67
2018-03-16T11:01:01.573Z,33.13
2018-03-16T11:03:35.602Z,33.63
2018-03-16T11:06:05.251Z,29.67
2018-03-16T11:08:33.791Z,27.57
2018-03-16T11:11:02.364Z,28.67
2018-03-16T11:13:30.631Z,29.20
2018-03-16T11:16:00.254Z,28.43
2018-03-16T11:18:28.431Z,29.03
2018-03-16T11:20:56.690Z,26.83
2018-03-16T11:23:24.955Z,31.33
2018-03-16T11:25:54.770Z,24.50
2018-03-16T11:28:23.034Z,24.77
2018-03-16T11:30:51.298Z,28.80
2018-03-16T11:33:21.095Z,25.03
2018-03-16T11:35:49.353Z,26.50
2018-03-16T11:38:17.614Z,26.40
2018-03-16T11:40:45.910Z,24.20
2018-03-16T11:43:14.226Z,26.00
2018-03-16T11:45:42.460Z,25.73
2018-03-16T11:48:10.751Z,27.90
2018-03-16T11:50:39.779Z,26.33
2018-03-16T11:53:08.062Z,27.10
2018-03-16T11:55:37.114Z,26.60
2018-03-16T11:58:06.142Z,26.33
2018-03-16T12:00:34.436Z,24.87
2018-03-16T12:03:02.723Z,24.40
2018-03-16T12:05:30.987Z,23.37
2018-03-16T12:07:59.298Z,24.70
2018-03-16T12:10:28.692Z,25.53
2018-03-16T12:12:56.959Z,25.73
2018-03-16T12:15:25.586Z,26.63
2018-03-16T12:17:53.851Z,25.87
2018-03-16T12:20:22.879Z,26.40
2018-03-16T12:22:51.566Z,23.97
2018-03-16T12:25:19.826Z,22.17
2018-03-16T12:27:48.090Z,22.07
2018-03-16T12:30:17.746Z,23.10
2018-03-16T12:32:46.650Z,23.07
2018-03-16T12:35:15.678Z,24.73
2018-03-16T12:37:44.088Z,19.53
2018-03-16T12:40:12.347Z,23.47
2018-03-16T12:42:40.620Z,22.10
2018-03-16T12:45:08.920Z,24.87
2018-03-16T12:47:38.314Z,25.27
2018-03-16T12:50:06.582Z,23.30
2018-03-16T12:52:34.902Z,24.33
2018-03-16T12:55:04.674Z,23.03
2018-03-16T12:57:34.325Z,23.50
2018-03-16T13:00:03.642Z,26.30
2018-03-16T13:02:31.906Z,24.93
2018-03-16T13:05:00.939Z,25.60
2018-03-16T13:07:29.242Z,28.60
2018-03-16T13:09:57.506Z,31.37
2018-03-16T13:12:25.780Z,30.27
2018-03-16T13:14:54.082Z,29.07
2018-03-16T13:17:22.350Z,28.00
2018-03-16T13:19:50.633Z,28.23
2018-03-16T13:22:19.700Z,35.13
2018-03-16T13:24:47.963Z,34.70
2018-03-16T13:27:16.239Z,37.07
2018-03-16T13:29:45.306Z,30.10
2018-03-16T13:32:14.398Z,32.80
2018-03-16T13:34:42.601Z,30.00
2018-03-16T13:37:11.659Z,30.37
2018-03-16T13:39:40.695Z,26.87
2018-03-16T13:42:08.962Z,27.97
2018-03-16T13:44:37.661Z,26.83
2018-03-16T13:47:06.695Z,25.13
2018-03-16T13:49:34.959Z,27.03
2018-03-16T13:52:03.263Z,27.33
2018-03-16T13:54:31.530Z,29.10
2018-03-16T13:56:59.796Z,25.73
2018-03-16T13:59:28.091Z,28.17
2018-03-16T14:01:56.379Z,28.70
2018-03-16T14:04:25.783Z,27.77
2018-03-16T14:06:54.088Z,27.63
2018-03-16T14:09:22.343Z,25.60
2018-03-16T14:11:50.608Z,28.20
2018-03-16T14:14:20.043Z,29.23
2018-03-16T14:16:49.067Z,30.30
2018-03-16T14:19:18.462Z,30.57
2018-03-16T14:21:47.838Z,30.37
2018-03-16T14:24:16.491Z,26.63
2018-03-16T14:26:44.755Z,30.80
2018-03-16T14:29:13.062Z,24.00
2018-03-16T14:31:41.327Z,25.13
2018-03-16T14:34:11.126Z,26.83
2018-03-16T14:36:39.410Z,26.80
2018-03-16T14:39:09.594Z,26.27
2018-03-16T14:41:37.854Z,26.80
2018-03-16T14:44:07.204Z,27.10
2018-03-16T14:46:35.458Z,29.07
2018-03-16T14:49:04.498Z,28.37
2018-03-16T14:51:32.787Z,33.23
2018-03-16T14:54:01.810Z,35.57
2018-03-16T14:56:30.875Z,34.73
2018-03-16T14:59:02.771Z,35.67
2018-03-16T15:01:31.034Z,35.00
2018-03-16T15:03:59.294Z,35.33
2018-03-16T15:06:27.594Z,36.20
2018-03-16T15:08:57.362Z,35.23
2018-03-16T15:11:25.636Z,37.23
2018-03-16T15:13:53.944Z,34.17
2018-03-16T15:16:23.691Z,31.13
2018-03-16T15:18:53.432Z,32.23
2018-03-16T15:21:22.450Z,34.20
2018-03-16T15:23:51.109Z,31.07
2018-03-16T15:26:20.187Z,28.70
2018-03-16T15:28:49.764Z,28.17
2018-03-16T15:31:17.864Z,27.90
2018-03-16T15:33:46.126Z,27.57
2018-03-16T15:36:14.367Z,24.80
2018-03-16T15:38:42.629Z,23.20
2018-03-16T15:41:10.860Z,24.30
2018-03-16T15:43:39.092Z,23.73
2018-03-16T15:46:07.363Z,24.47
2018-03-16T15:48:35.597Z,24.33
2018-03-16T15:51:04.593Z,24.47
2018-03-16T15:53:33.040Z,24.90
2018-03-16T15:56:02.778Z,24.27
2018-03-16T15:58:31.021Z,23.77
2018-03-16T16:00:59.285Z,24.40
2018-03-16T16:03:27.518Z,24.80
2018-03-16T16:05:55.752Z,21.80
2018-03-16T16:08:24.004Z,23.83
2018-03-16T16:10:52.236Z,26.73
2018-03-16T16:13:20.492Z,26.07
2018-03-16T16:15:48.752Z,25.37
2018-03-16T16:18:16.976Z,27.53
2018-03-16T16:20:45.642Z,27.20
2018-03-16T16:23:13.900Z,25.00
2018-03-16T16:25:42.138Z,26.87
2018-03-16T16:28:10.405Z,25.40
2018-03-16T16:30:40.160Z,25.33
2018-03-16T16:33:08.389Z,27.07
2018-03-16T16:35:36.660Z,29.70
2018-03-16T16:38:04.900Z,26.47
2018-03-16T16:40:33.155Z,28.10
2018-03-16T16:43:01.419Z,29.83
2018-03-16T16:45:29.714Z,26.10
2018-03-16T16:47:57.893Z,23.87
2018-03-16T16:50:26.152Z,23.93
2018-03-16T16:52:54.394Z,23.47
2018-03-16T16:55:23.472Z,23.90
2018-03-16T16:57:53.244Z,23.83
2018-03-16T17:00:21.521Z,24.10
2018-03-16T17:02:49.732Z,25.10
2018-03-16T17:05:18.005Z,28.07
2018-03-16T17:07:46.237Z,28.10
2018-03-16T17:10:14.502Z,25.57
2018-03-16T17:12:42.737Z,28.50
2018-03-16T17:15:12.474Z,28.23
2018-03-16T17:17:42.250Z,27.70
2018-03-16T17:20:10.489Z,26.90
2018-03-16T17:22:38.728Z,29.03
2018-03-16T17:25:07.389Z,26.10
2018-03-16T17:27:35.621Z,29.27
2018-03-16T17:30:04.988Z,29.90
2018-03-16T17:32:33.265Z,28.53
2018-03-16T17:35:02.279Z,29.67
2018-03-16T17:37:31.277Z,29.53
2018-03-16T17:39:59.545Z,28.83
2018-03-16T17:42:27.782Z,30.07
2018-03-16T17:44:56.408Z,28.07
2018-03-16T17:47:25.444Z,27.83
2018-03-16T17:49:53.707Z,30.03
2018-03-16T17:52:21.912Z,24.53
2018-03-16T17:54:50.179Z,25.53
2018-03-16T17:57:18.408Z,26.60
2018-03-16T17:59:46.645Z,28.03
2018-03-16T18:02:15.695Z,27.20
2018-03-16T18:04:45.065Z,24.90
2018-03-16T18:07:13.295Z,28.17
2018-03-16T18:09:41.564Z,26.50
2018-03-16T18:12:09.789Z,25.30
2018-03-16T18:14:38.066Z,27.30
2018-03-16T18:17:07.758Z,26.27
2018-03-16T18:19:37.121Z,27.00
2018-03-16T18:22:06.121Z,25.67
2018-03-16T18:24:34.384Z,25.43
2018-03-16T18:27:02.641Z,25.00
2018-03-16T18:29:32.017Z,24.50
2018-03-16T18:32:02.321Z,27.20
2018-03-16T18:34:30.593Z,25.73
2018-03-16T18:37:00.204Z,26.33
2018-03-16T18:39:28.344Z,25.00
2018-03-16T18:41:56.618Z,24.27
2018-03-16T18:44:26.410Z,24.23
2018-03-16T18:46:54.665Z,25.30
2018-03-16T18:49:22.897Z,23.87
2018-03-16T18:51:51.173Z,24.90
2018-03-16T18:54:19.428Z,21.83
2018-03-16T18:56:47.660Z,23.00
2018-03-16T18:59:17.300Z,22.57
2018-03-16T19:01:45.415Z,24.60
2018-03-16T19:04:13.645Z,27.90
2018-03-16T19:06:41.934Z,28.03
2018-03-16T19:09:10.193Z,26.10
2018-03-16T19:11:38.442Z,21.80
2018-03-16T19:14:06.760Z,24.53
2018-03-16T19:16:35.753Z,23.00
2018-03-16T19:19:03.988Z,23.17
2018-03-16T19:21:33.770Z,27.00
2018-03-16T19:24:02.045Z,24.50
2018-03-16T19:26:30.300Z,24.10
2018-03-16T19:28:58.561Z,27.57
2018-03-16T19:31:26.853Z,26.70
2018-03-16T19:33:55.081Z,23.00
2018-03-16T19:36:24.476Z,21.90
2018-03-16T19:38:52.736Z,22.00
2018-03-16T19:41:20.980Z,23.03
2018-03-16T19:43:49.246Z,20.60
2018-03-16T19:46:17.513Z,21.67
2018-03-16T19:48:45.786Z,21.03
2018-03-16T19:51:13.977Z,23.73
2018-03-16T19:53:43.388Z,24.35
2018-03-16T19:56:11.634Z,23.37
2018-03-16T19:58:39.877Z,23.03
2018-03-16T20:01:08.913Z,22.40
2018-03-16T20:03:38.288Z,22.80
2018-03-16T20:06:06.517Z,21.93
2018-03-16T20:08:36.149Z,22.10
2018-03-16T20:11:04.257Z,22.87
2018-03-16T20:13:33.260Z,20.30
2018-03-16T20:16:01.542Z,21.97
2018-03-16T20:18:30.544Z,21.77
2018-03-16T20:20:58.793Z,19.23
2018-03-16T20:23:27.465Z,20.03
2018-03-16T20:25:55.705Z,19.95
2018-03-16T20:28:23.941Z,18.93
2018-03-16T20:30:56.061Z,21.00
2018-03-16T20:33:24.306Z,19.65
2018-03-16T20:35:53.306Z,17.83
2018-03-16T20:38:21.585Z,19.08
2018-03-16T20:40:49.833Z,19.20
2018-03-16T20:43:18.064Z,18.95
2018-03-16T20:45:48.022Z,20.10
2018-03-16T20:48:16.266Z,20.30
2018-03-16T20:50:44.500Z,19.02
2018-03-16T20:53:12.788Z,18.77
2018-03-16T20:55:41.041Z,19.50
2018-03-16T20:58:09.277Z,19.83
2018-03-16T21:00:38.325Z,19.30
2018-03-16T21:03:06.561Z,18.95
2018-03-16T21:05:34.798Z,20.30
2018-03-16T21:08:04.424Z,18.83
2018-03-16T21:10:32.933Z,17.55
2018-03-16T21:13:01.173Z,18.08
2018-03-16T21:15:29.461Z,19.02
2018-03-16T21:17:57.706Z,18.12
2018-03-16T21:20:27.316Z,20.67
2018-03-16T21:22:55.481Z,20.98
2018-03-16T21:25:23.721Z,19.37
2018-03-16T21:27:51.961Z,19.50
2018-03-16T21:30:20.249Z,18.10
2018-03-16T21:32:49.847Z,19.67
2018-03-16T21:35:17.961Z,18.62
2018-03-16T21:37:46.243Z,18.75
2018-03-16T21:40:14.472Z,18.98
2018-03-16T21:42:42.712Z,20.37
2018-03-16T21:45:10.988Z,20.70
2018-03-16T21:47:40.728Z,20.00
2018-03-16T21:50:09.732Z,19.08
2018-03-16T21:52:38.769Z,20.02
2018-03-16T21:55:08.365Z,19.95
2018-03-16T21:57:37.645Z,18.90
2018-03-16T22:00:07.306Z,18.40
2018-03-16T22:02:35.422Z,20.77
2018-03-16T22:05:03.660Z,17.87
2018-03-16T22:07:33.303Z,17.40
2018-03-16T22:10:01.426Z,19.12
2018-03-16T22:12:30.070Z,18.33
2018-03-16T22:14:58.375Z,19.37
2018-03-16T22:17:26.672Z,18.92
2018-03-16T22:19:54.957Z,18.05
2018-03-16T22:22:23.496Z,20.03
2018-03-16T22:24:52.101Z,20.67
2018-03-16T22:27:20.373Z,16.55
2018-03-16T22:29:49.013Z,18.40
2018-03-16T22:32:17.253Z,17.60
2018-03-16T22:34:45.489Z,18.15
2018-03-16T22:37:14.025Z,18.92
2018-03-16T22:39:42.662Z,16.58
2018-03-16T22:42:10.892Z,17.85
2018-03-16T22:44:40.225Z,17.58
2018-03-16T22:47:09.275Z,17.85
2018-03-16T22:49:37.465Z,18.45
2018-03-16T22:52:09.027Z,16.37
2018-03-16T22:54:37.260Z,17.40
2018-03-16T22:57:05.501Z,17.25
2018-03-16T22:59:33.777Z,17.58
2018-03-16T23:02:02.020Z,18.20
2018-03-16T23:04:31.616Z,17.87
2018-03-16T23:07:00.161Z,20.20
2018-03-16T23:09:29.167Z,17.92
2018-03-16T23:11:58.174Z,18.58
2018-03-16T23:14:26.475Z,18.50
2018-03-16T23:16:54.708Z,17.30
2018-03-16T23:19:22.940Z,17.77
2018-03-16T23:21:51.214Z,17.50
2018-03-16T23:24:19.454Z,18.12
2018-03-16T23:26:47.684Z,17.25
2018-03-16T23:29:17.097Z,18.37
2018-03-16T23:31:45.328Z,17.02
2018-03-16T23:34:14.337Z,20.05
2018-03-16T23:36:43.888Z,18.12
2018-03-16T23:39:12.523Z,20.62
2018-03-16T23:41:40.756Z,19.17
2018-03-16T23:44:10.534Z,19.60
2018-03-16T23:46:39.536Z,19.33
2018-03-16T23:49:08.528Z,19.10
2018-03-16T23:51:36.837Z,19.23
2018-03-16T23:54:05.077Z,18.58
2018-03-16T23:56:34.072Z,19.75
2018-03-16T23:59:02.340Z,19.02
